Ashaway, Rhode Island
Current Conditions -  °F | °C
As of 1:53 AM on Sunday 26 Oct 2014 (Local Time) from KWST Reporting Station
Broken Clouds Broken Clouds  
Wind Chill: 60°   Ceiling: 6500
Heat Index: 60°   Visibility: 10mi
Dew Point: 50°   Wind: 5mph
Humidity: 69%   Direction: NA
Pressure: 29.52"   Gusts: NA
Location:  41.43°N, 71.79°W
Report Text: KWST 260553Z AUTO VRB04KT 10SM BKN065 BKN110 16/10 A2952 RMK AO2 SLP996 T01560100 10167 20150 56017
Loading
Personal Weather Stations






























Interactive Weather Map
Tropical Storm Tracking
New forecast layout! Learn more

10-Day Weather Forecast

Advertisements
Track Severe Weather on mobile